sensor_id;sensor_type;location;lat;lon;timestamp;pressure;altitude;pressure_sealevel;temperature;humidity
45523;BME280;31254;51.680;5.394;2023-02-11T00:00:22;103468.72;;;7.28;82.97
45523;BME280;31254;51.680;5.394;2023-02-11T00:02:51;103480.97;;;7.39;82.87
45523;BME280;31254;51.680;5.394;2023-02-11T00:05:17;103486.41;;;7.39;83.20
45523;BME280;31254;51.680;5.394;2023-02-11T00:07:44;103490.06;;;7.38;83.21
45523;BME280;31254;51.680;5.394;2023-02-11T00:10:13;103474.69;;;7.37;82.99
45523;BME280;31254;51.680;5.394;2023-02-11T00:12:39;103466.44;;;7.40;82.83
45523;BME280;31254;51.680;5.394;2023-02-11T00:15:08;103461.00;;;7.40;82.85
45523;BME280;31254;51.680;5.394;2023-02-11T00:17:35;103463.78;;;7.38;83.05
45523;BME280;31254;51.680;5.394;2023-02-11T00:20:01;103455.00;;;7.31;83.04
45523;BME280;31254;51.680;5.394;2023-02-11T00:22:30;103470.06;;;7.40;82.75
45523;BME280;31254;51.680;5.394;2023-02-11T00:24:57;103469.34;;;7.35;83.03
45523;BME280;31254;51.680;5.394;2023-02-11T00:27:26;103477.41;;;7.37;83.05
45523;BME280;31254;51.680;5.394;2023-02-11T00:29:53;103469.28;;;7.37;83.05
45523;BME280;31254;51.680;5.394;2023-02-11T00:32:19;103466.50;;;7.38;82.96
45523;BME280;31254;51.680;5.394;2023-02-11T00:34:46;103438.91;;;7.27;83.02
45523;BME280;31254;51.680;5.394;2023-02-11T00:37:13;103442.47;;;7.29;82.95
45523;BME280;31254;51.680;5.394;2023-02-11T00:39:39;103451.34;;;7.32;82.95
45523;BME280;31254;51.680;5.394;2023-02-11T00:42:06;103452.56;;;7.25;82.84
45523;BME280;31254;51.680;5.394;2023-02-11T00:44:32;103461.41;;;7.30;82.73
45523;BME280;31254;51.680;5.394;2023-02-11T00:46:59;103470.25;;;7.36;82.95
45523;BME280;31254;51.680;5.394;2023-02-11T00:49:25;103467.47;;;7.37;82.81
45523;BME280;31254;51.680;5.394;2023-02-11T00:51:52;103443.53;;;7.25;82.86
45523;BME280;31254;51.680;5.394;2023-02-11T00:54:19;103440.69;;;7.28;82.96
45523;BME280;31254;51.680;5.394;2023-02-11T00:56:45;103450.69;;;7.27;83.03
45523;BME280;31254;51.680;5.394;2023-02-11T00:59:12;103443.59;;;7.23;82.96
45523;BME280;31254;51.680;5.394;2023-02-11T01:01:39;103437.22;;;7.24;82.87
45523;BME280;31254;51.680;5.394;2023-02-11T01:04:05;103465.63;;;7.38;83.00
45523;BME280;31254;51.680;5.394;2023-02-11T01:06:32;103451.41;;;7.31;83.17
45523;BME280;31254;51.680;5.394;2023-02-11T01:08:59;103447.97;;;7.27;83.08
45523;BME280;31254;51.680;5.394;2023-02-11T01:11:28;103470.13;;;7.39;82.87
45523;BME280;31254;51.680;5.394;2023-02-11T01:13:57;103475.69;;;7.36;82.97
45523;BME280;31254;51.680;5.394;2023-02-11T01:16:24;103490.00;;;7.39;82.80
45523;BME280;31254;51.680;5.394;2023-02-11T01:18:51;103484.50;;;7.41;83.29
45523;BME280;31254;51.680;5.394;2023-02-11T01:21:18;103453.72;;;7.20;82.94
45523;BME280;31254;51.680;5.394;2023-02-11T01:23:44;103469.63;;;7.29;82.79
45523;BME280;31254;51.680;5.394;2023-02-11T01:26:11;103414.03;;;6.95;82.95
45523;BME280;31254;51.680;5.394;2023-02-11T01:28:38;103466.00;;;7.28;83.15
45523;BME280;31254;51.680;5.394;2023-02-11T01:31:05;103456.91;;;7.29;83.04
45523;BME280;31254;51.680;5.394;2023-02-11T01:33:34;103439.16;;;7.21;83.07
45523;BME280;31254;51.680;5.394;2023-02-11T01:36:02;103465.56;;;7.39;83.38
45523;BME280;31254;51.680;5.394;2023-02-11T01:38:30;103457.53;;;7.36;83.53
45523;BME280;31254;51.680;5.394;2023-02-11T01:41:04;103435.88;;;7.35;83.33
45523;BME280;31254;51.680;5.394;2023-02-11T01:43:35;103420.69;;;7.30;83.51
45523;BME280;31254;51.680;5.394;2023-02-11T01:48:46;103420.38;;;7.16;84.13
45523;BME280;31254;51.680;5.394;2023-02-11T01:51:21;103417.91;;;7.10;84.03
45523;BME280;31254;51.680;5.394;2023-02-11T01:53:52;103422.78;;;7.02;84.16
45523;BME280;31254;51.680;5.394;2023-02-11T01:56:42;103428.84;;;7.08;84.34
45523;BME280;31254;51.680;5.394;2023-02-11T01:59:33;103403.09;;;6.97;84.44
45523;BME280;31254;51.680;5.394;2023-02-11T02:02:05;103438.88;;;7.06;84.42
45523;BME280;31254;51.680;5.394;2023-02-11T02:04:39;103431.81;;;7.02;84.09
45523;BME280;31254;51.680;5.394;2023-02-11T02:07:18;103435.19;;;7.07;84.20
45523;BME280;31254;51.680;5.394;2023-02-11T02:09:54;103434.47;;;7.04;84.27
45523;BME280;31254;51.680;5.394;2023-02-11T02:12:26;103436.78;;;7.13;84.09
45523;BME280;31254;51.680;5.394;2023-02-11T02:15:24;103427.75;;;7.12;83.91
45523;BME280;31254;51.680;5.394;2023-02-11T02:18:00;103435.25;;;7.06;84.26
45523;BME280;31254;51.680;5.394;2023-02-11T02:23:41;103439.38;;;7.16;84.00
45523;BME280;31254;51.680;5.394;2023-02-11T02:35:01;103452.75;;;7.21;84.08
45523;BME280;31254;51.680;5.394;2023-02-11T02:37:35;103429.22;;;7.21;84.19
45523;BME280;31254;51.680;5.394;2023-02-11T02:40:08;103430.94;;;7.22;83.97
45523;BME280;31254;51.680;5.394;2023-02-11T02:42:43;103424.66;;;7.22;84.07
45523;BME280;31254;51.680;5.394;2023-02-11T02:45:10;103423.72;;;7.23;83.96
45523;BME280;31254;51.680;5.394;2023-02-11T02:47:39;103445.50;;;7.21;84.19
45523;BME280;31254;51.680;5.394;2023-02-11T02:50:06;103432.97;;;7.17;84.53
45523;BME280;31254;51.680;5.394;2023-02-11T03:06:49;103435.13;;;7.09;84.60
45523;BME280;31254;51.680;5.394;2023-02-11T03:09:28;103426.44;;;7.01;84.37
45523;BME280;31254;51.680;5.394;2023-02-11T03:11:59;103429.16;;;7.01;84.46
45523;BME280;31254;51.680;5.394;2023-02-11T03:14:30;103431.63;;;7.07;84.59
45523;BME280;31254;51.680;5.394;2023-02-11T03:17:01;103428.91;;;7.07;84.44
45523;BME280;31254;51.680;5.394;2023-02-11T03:19:43;103418.09;;;7.05;84.93
45523;BME280;31254;51.680;5.394;2023-02-11T03:22:24;103408.25;;;7.03;85.19
45523;BME280;31254;51.680;5.394;2023-02-11T03:24:54;103397.69;;;6.97;84.85
45523;BME280;31254;51.680;5.394;2023-02-11T03:27:44;103406.56;;;7.00;85.05
45523;BME280;31254;51.680;5.394;2023-02-11T03:30:25;103415.59;;;7.01;85.08
45523;BME280;31254;51.680;5.394;2023-02-11T03:33:01;103411.94;;;7.02;84.89
45523;BME280;31254;51.680;5.394;2023-02-11T03:35:50;103412.94;;;6.99;84.53
45523;BME280;31254;51.680;5.394;2023-02-11T03:38:27;103427.25;;;7.03;85.16
45523;BME280;31254;51.680;5.394;2023-02-11T03:41:02;103431.81;;;7.02;85.07
45523;BME280;31254;51.680;5.394;2023-02-11T03:43:37;103429.97;;;7.03;85.45
45523;BME280;31254;51.680;5.394;2023-02-11T03:46:07;103400.69;;;6.89;84.97
45523;BME280;31254;51.680;5.394;2023-02-11T03:48:42;103422.78;;;7.02;85.29
45523;BME280;31254;51.680;5.394;2023-02-11T03:51:11;103418.34;;;6.99;84.94
45523;BME280;31254;51.680;5.394;2023-02-11T03:53:42;103400.56;;;6.92;84.96
45523;BME280;31254;51.680;5.394;2023-02-11T03:56:14;103410.97;;;7.03;85.23
45523;BME280;31254;51.680;5.394;2023-02-11T03:58:45;103413.69;;;7.03;85.09
45523;BME280;31254;51.680;5.394;2023-02-11T04:01:15;103419.94;;;7.05;85.24
45523;BME280;31254;51.680;5.394;2023-02-11T04:03:42;103410.03;;;7.04;85.41
45523;BME280;31254;51.680;5.394;2023-02-11T04:06:11;103404.59;;;7.04;85.10
45523;BME280;31254;51.680;5.394;2023-02-11T04:08:37;103400.09;;;7.03;85.15
45523;BME280;31254;51.680;5.394;2023-02-11T04:11:07;103395.66;;;7.02;85.33
45523;BME280;31254;51.680;5.394;2023-02-11T04:13:33;103382.50;;;6.91;85.30
45523;BME280;31254;51.680;5.394;2023-02-11T04:16:00;103387.06;;;6.90;85.23
45523;BME280;31254;51.680;5.394;2023-02-11T04:18:27;103378.88;;;6.92;85.52
45523;BME280;31254;51.680;5.394;2023-02-11T04:20:53;103386.94;;;6.93;85.55
45523;BME280;31254;51.680;5.394;2023-02-11T04:23:23;103381.75;;;6.87;85.52
45523;BME280;31254;51.680;5.394;2023-02-11T04:25:50;103362.47;;;6.73;85.55
45523;BME280;31254;51.680;5.394;2023-02-11T04:28:18;103380.28;;;6.78;85.69
45523;BME280;31254;51.680;5.394;2023-02-11T04:30:44;103379.56;;;6.75;85.94
45523;BME280;31254;51.680;5.394;2023-02-11T04:33:13;103384.97;;;6.75;85.93
45523;BME280;31254;51.680;5.394;2023-02-11T04:35:40;103379.66;;;6.72;85.79
45523;BME280;31254;51.680;5.394;2023-02-11T04:38:09;103353.25;;;6.55;85.90
45523;BME280;31254;51.680;5.394;2023-02-11T04:40:35;103387.69;;;6.75;86.14
45523;BME280;31254;51.680;5.394;2023-02-11T04:43:02;103372.81;;;6.63;85.80
45523;BME280;31254;51.680;5.394;2023-02-11T04:45:28;103386.13;;;6.69;85.71
45523;BME280;31254;51.680;5.394;2023-02-11T04:47:55;103408.34;;;6.79;86.14
45523;BME280;31254;51.680;5.394;2023-02-11T04:50:24;103398.47;;;6.76;86.02
45523;BME280;31254;51.680;5.394;2023-02-11T04:52:51;103417.22;;;6.83;85.79
45523;BME280;31254;51.680;5.394;2023-02-11T04:55:17;103395.81;;;6.75;86.08
45523;BME280;31254;51.680;5.394;2023-02-11T04:57:44;103380.75;;;6.68;86.29
45523;BME280;31254;51.680;5.394;2023-02-11T05:00:14;103410.09;;;6.80;85.95
45523;BME280;31254;51.680;5.394;2023-02-11T05:02:45;103387.94;;;6.69;86.21
45523;BME280;31254;51.680;5.394;2023-02-11T05:05:12;103410.94;;;6.82;86.14
45523;BME280;31254;51.680;5.394;2023-02-11T05:07:40;103409.97;;;6.83;86.14
45523;BME280;31254;51.680;5.394;2023-02-11T05:10:09;103391.50;;;6.71;86.48
45523;BME280;31254;51.680;5.394;2023-02-11T05:12:36;103417.22;;;6.83;86.29
45523;BME280;31254;51.680;5.394;2023-02-11T05:15:03;103416.28;;;6.84;86.31
45523;BME280;31254;51.680;5.394;2023-02-11T05:17:29;103352.56;;;6.50;86.27
45523;BME280;31254;51.680;5.394;2023-02-11T05:19:58;103386.94;;;6.71;86.47
45523;BME280;31254;51.680;5.394;2023-02-11T05:22:25;103394.91;;;6.76;86.29
45523;BME280;31254;51.680;5.394;2023-02-11T05:24:54;103381.44;;;6.73;86.58
45523;BME280;31254;51.680;5.394;2023-02-11T05:27:20;103397.47;;;6.79;86.75
45523;BME280;31254;51.680;5.394;2023-02-11T05:29:47;103379.72;;;6.70;86.38
45523;BME280;31254;51.680;5.394;2023-02-11T05:32:13;103392.06;;;6.79;86.66
45523;BME280;31254;51.680;5.394;2023-02-11T05:34:40;103404.34;;;6.88;86.59
45523;BME280;31254;51.680;5.394;2023-02-11T05:37:07;103374.94;;;6.77;86.71
45523;BME280;31254;51.680;5.394;2023-02-11T05:39:33;103390.78;;;6.88;86.45
45523;BME280;31254;51.680;5.394;2023-02-11T05:42:00;103373.19;;;6.76;86.37
45523;BME280;31254;51.680;5.394;2023-02-11T05:44:27;103370.41;;;6.77;86.47
45523;BME280;31254;51.680;5.394;2023-02-11T05:46:53;103397.03;;;6.90;86.48
45523;BME280;31254;51.680;5.394;2023-02-11T05:49:20;103384.03;;;6.76;86.54
45523;BME280;31254;51.680;5.394;2023-02-11T05:51:47;103367.25;;;6.66;86.95
45523;BME280;31254;51.680;5.394;2023-02-11T05:54:13;103401.69;;;6.86;86.65
45523;BME280;31254;51.680;5.394;2023-02-11T05:56:40;103392.63;;;6.87;86.72
45523;BME280;31254;51.680;5.394;2023-02-11T05:59:12;103395.28;;;6.89;86.76
45523;BME280;31254;51.680;5.394;2023-02-11T06:01:41;103397.19;;;6.87;86.33
45523;BME280;31254;51.680;5.394;2023-02-11T06:04:10;103393.50;;;6.88;86.45
45523;BME280;31254;51.680;5.394;2023-02-11T06:06:37;103397.03;;;6.90;86.48
45523;BME280;31254;51.680;5.394;2023-02-11T06:09:04;103391.59;;;6.90;86.60
45523;BME280;31254;51.680;5.394;2023-02-11T06:11:32;103400.50;;;6.93;86.61
45523;BME280;31254;51.680;5.394;2023-02-11T06:14:02;103396.16;;;6.89;86.74
45523;BME280;31254;51.680;5.394;2023-02-11T06:16:28;103397.94;;;6.90;86.67
45523;BME280;31254;51.680;5.394;2023-02-11T06:18:55;103407.69;;;6.94;86.76
45523;BME280;31254;51.680;5.394;2023-02-11T06:21:22;103374.81;;;6.80;86.75
45523;BME280;31254;51.680;5.394;2023-02-11T06:23:58;103395.22;;;6.90;86.44
45523;BME280;31254;51.680;5.394;2023-02-11T06:26:24;103401.31;;;6.95;86.23
45523;BME280;31254;51.680;5.394;2023-02-11T06:28:51;103413.69;;;7.03;86.65
45523;BME280;31254;51.680;5.394;2023-02-11T06:31:18;103401.31;;;6.95;86.94
45523;BME280;31254;51.680;5.394;2023-02-11T06:33:48;103402.00;;;7.01;86.62
45523;BME280;31254;51.680;5.394;2023-02-11T06:36:17;103354.19;;;6.76;86.55
45523;BME280;31254;51.680;5.394;2023-02-11T06:38:45;103416.13;;;7.09;86.83
45523;BME280;31254;51.680;5.394;2023-02-11T06:41:14;103413.31;;;7.12;86.93
45523;BME280;31254;51.680;5.394;2023-02-11T06:43:42;103396.44;;;7.04;87.14
45523;BME280;31254;51.680;5.394;2023-02-11T06:46:11;103405.97;;;7.14;86.88
45523;BME280;31254;51.680;5.394;2023-02-11T06:48:38;103409.53;;;7.16;87.34
45523;BME280;31254;51.680;5.394;2023-02-11T06:51:07;103388.06;;;7.10;86.99
45523;BME280;31254;51.680;5.394;2023-02-11T06:53:39;103393.63;;;7.07;86.66
45523;BME280;31254;51.680;5.394;2023-02-11T06:56:09;103393.56;;;7.08;86.67
45523;BME280;31254;51.680;5.394;2023-02-11T06:58:36;103405.84;;;7.17;86.94
45523;BME280;31254;51.680;5.394;2023-02-11T07:01:05;103419.22;;;7.22;87.06
45523;BME280;31254;51.680;5.394;2023-02-11T07:03:37;103421.94;;;7.22;87.41
45523;BME280;31254;51.680;5.394;2023-02-11T07:06:05;103424.53;;;7.25;86.99
45523;BME280;31254;51.680;5.394;2023-02-11T07:08:33;103421.06;;;7.21;87.30
45523;BME280;31254;51.680;5.394;2023-02-11T07:11:00;103400.66;;;7.11;87.38
45523;BME280;31254;51.680;5.394;2023-02-11T07:13:33;103427.97;;;7.28;87.03
45523;BME280;31254;51.680;5.394;2023-02-11T07:16:08;103431.59;;;7.29;87.35
45523;BME280;31254;51.680;5.394;2023-02-11T07:18:35;103381.47;;;6.95;87.23
45523;BME280;31254;51.680;5.394;2023-02-11T07:21:10;103445.94;;;7.32;87.29
45523;BME280;31254;51.680;5.394;2023-02-11T07:23:40;103418.47;;;7.18;87.15
45523;BME280;31254;51.680;5.394;2023-02-11T07:26:09;103443.09;;;7.36;87.32
45523;BME280;31254;51.680;5.394;2023-02-11T07:28:36;103418.22;;;7.24;87.13
45523;BME280;31254;51.680;5.394;2023-02-11T07:31:14;103445.59;;;7.40;87.23
45523;BME280;31254;51.680;5.394;2023-02-11T07:33:41;103450.06;;;7.41;87.29
45523;BME280;31254;51.680;5.394;2023-02-11T07:36:17;103425.13;;;7.31;87.11
45523;BME280;31254;51.680;5.394;2023-02-11T07:38:44;103453.53;;;7.45;87.51
45523;BME280;31254;51.680;5.394;2023-02-11T07:41:16;103443.75;;;7.41;87.25
45523;BME280;31254;51.680;5.394;2023-02-11T07:43:43;103437.59;;;7.37;87.18
45523;BME280;31254;51.680;5.394;2023-02-11T07:46:16;103457.03;;;7.48;87.48
45523;BME280;31254;51.680;5.394;2023-02-11T07:48:47;103433.22;;;7.33;87.29
45523;BME280;31254;51.680;5.394;2023-02-11T07:51:19;103469.44;;;7.54;87.54
45523;BME280;31254;51.680;5.394;2023-02-11T07:53:46;103482.09;;;7.55;87.50
45523;BME280;31254;51.680;5.394;2023-02-11T07:56:14;103474.75;;;7.57;87.71
45523;BME280;31254;51.680;5.394;2023-02-11T07:58:42;103474.69;;;7.59;87.77
45523;BME280;31254;51.680;5.394;2023-02-11T08:01:13;103467.41;;;7.59;87.58
45523;BME280;31254;51.680;5.394;2023-02-11T08:03:41;103469.19;;;7.60;87.70
45523;BME280;31254;51.680;5.394;2023-02-11T08:06:12;103458.44;;;7.57;87.71
45523;BME280;31254;51.680;5.394;2023-02-11T08:08:39;103471.03;;;7.60;87.38
45523;BME280;31254;51.680;5.394;2023-02-11T08:11:11;103463.00;;;7.57;87.69
45523;BME280;31254;51.680;5.394;2023-02-11T08:13:41;103471.56;;;7.68;87.93
45523;BME280;31254;51.680;5.394;2023-02-11T08:16:10;103485.16;;;7.68;87.94
45523;BME280;31254;51.680;5.394;2023-02-11T08:18:42;103469.91;;;7.64;87.76
45523;BME280;31254;51.680;5.394;2023-02-11T08:21:09;103354.31;;;6.95;87.40
45523;BME280;31254;51.680;5.394;2023-02-11T08:23:37;103477.63;;;7.75;87.72
45523;BME280;31254;51.680;5.394;2023-02-11T08:26:07;103460.75;;;7.66;87.58
45523;BME280;31254;51.680;5.394;2023-02-11T08:28:36;103409.41;;;7.40;87.75
45523;BME280;31254;51.680;5.394;2023-02-11T08:31:07;103454.09;;;7.74;87.79
45523;BME280;31254;51.680;5.394;2023-02-11T08:33:34;103263.69;;;6.56;87.05
45523;BME280;31254;51.680;5.394;2023-02-11T08:36:07;103482.09;;;7.96;87.41
45523;BME280;31254;51.680;5.394;2023-02-11T08:38:34;103449.28;;;7.80;87.27
45523;BME280;31254;51.680;5.394;2023-02-11T08:41:01;103456.41;;;7.83;87.39
45523;BME280;31254;51.680;5.394;2023-02-11T08:43:30;103488.53;;;8.14;86.86
45523;BME280;31254;51.680;5.394;2023-02-11T08:45:59;103469.63;;;8.11;86.81
45523;BME280;31254;51.680;5.394;2023-02-11T08:48:30;103468.75;;;8.11;87.11
45523;BME280;31254;51.680;5.394;2023-02-11T08:50:57;103490.91;;;8.22;87.13
45523;BME280;31254;51.680;5.394;2023-02-11T08:53:27;103495.09;;;8.29;86.95
45523;BME280;31254;51.680;5.394;2023-02-11T08:55:56;103469.34;;;8.17;87.39
45523;BME280;31254;51.680;5.394;2023-02-11T08:58:25;103450.81;;;8.06;86.96
45523;BME280;31254;51.680;5.394;2023-02-11T09:00:52;103478.94;;;8.26;86.85
45523;BME280;31254;51.680;5.394;2023-02-11T09:03:19;103491.16;;;8.36;87.08
45523;BME280;31254;51.680;5.394;2023-02-11T09:05:50;103494.53;;;8.41;86.91
45523;BME280;31254;51.680;5.394;2023-02-11T09:08:20;103458.06;;;8.27;86.93
45523;BME280;31254;51.680;5.394;2023-02-11T09:10:47;103491.72;;;8.45;86.66
45523;BME280;31254;51.680;5.394;2023-02-11T09:13:14;103504.06;;;8.52;87.17
45523;BME280;31254;51.680;5.394;2023-02-11T09:15:45;103457.91;;;8.30;86.80
45523;BME280;31254;51.680;5.394;2023-02-11T09:18:12;103492.09;;;8.56;86.61
45523;BME280;31254;51.680;5.394;2023-02-11T09:20:39;103491.56;;;8.48;86.85
45523;BME280;31254;51.680;5.394;2023-02-11T09:23:09;103503.84;;;8.56;86.82
45523;BME280;31254;51.680;5.394;2023-02-11T09:25:39;103463.38;;;8.30;86.82
45523;BME280;31254;51.680;5.394;2023-02-11T09:28:09;103485.91;;;8.52;86.66
45523;BME280;31254;51.680;5.394;2023-02-11T09:30:37;103522.19;;;8.72;86.57
45523;BME280;31254;51.680;5.394;2023-02-11T09:33:04;103488.50;;;8.55;86.51
45523;BME280;31254;51.680;5.394;2023-02-11T09:35:32;103514.09;;;8.70;86.74
45523;BME280;31254;51.680;5.394;2023-02-11T09:37:59;103498.72;;;8.69;86.82
45523;BME280;31254;51.680;5.394;2023-02-11T09:40:26;103524.22;;;8.86;86.97
45523;BME280;31254;51.680;5.394;2023-02-11T09:43:09;103506.66;;;8.74;86.60
45523;BME280;31254;51.680;5.394;2023-02-11T09:45:37;103497.84;;;8.69;86.96
45523;BME280;31254;51.680;5.394;2023-02-11T09:48:13;103526.75;;;8.90;87.27
45523;BME280;31254;51.680;5.394;2023-02-11T09:50:44;103529.25;;;8.95;86.68
45523;BME280;31254;51.680;5.394;2023-02-11T09:53:36;103524.75;;;8.94;86.67
45523;BME280;31254;51.680;5.394;2023-02-11T09:56:14;103513.13;;;8.90;86.30
45523;BME280;31254;51.680;5.394;2023-02-11T09:58:42;103527.19;;;9.00;86.57
45523;BME280;31254;51.680;5.394;2023-02-11T10:06:53;103527.81;;;9.05;86.48
45523;BME280;31254;51.680;5.394;2023-02-11T10:12:21;103534.75;;;9.12;86.86
45523;BME280;31254;51.680;5.394;2023-02-11T10:15:12;103544.69;;;9.13;86.58
45523;BME280;31254;51.680;5.394;2023-02-11T10:23:25;103565.22;;;9.21;86.34
45523;BME280;31254;51.680;5.394;2023-02-11T10:25:54;103566.03;;;9.23;86.43
45523;BME280;31254;51.680;5.394;2023-02-11T10:28:27;103567.72;;;9.25;86.50
45523;BME280;31254;51.680;5.394;2023-02-11T10:33:28;103577.72;;;9.25;86.57
45523;BME280;31254;51.680;5.394;2023-02-11T10:35:55;103549.25;;;9.13;86.92
45523;BME280;31254;51.680;5.394;2023-02-11T10:38:22;103571.41;;;9.24;87.09
45523;BME280;31254;51.680;5.394;2023-02-11T10:40:49;103590.91;;;9.34;86.93
45523;BME280;31254;51.680;5.394;2023-02-11T10:43:18;103582.88;;;9.31;86.49
45523;BME280;31254;51.680;5.394;2023-02-11T10:45:50;103588.69;;;9.42;86.76
45523;BME280;31254;51.680;5.394;2023-02-11T10:48:42;103591.41;;;9.42;86.74
45523;BME280;31254;51.680;5.394;2023-02-11T10:53:39;103582.13;;;9.46;86.14
45523;BME280;31254;51.680;5.394;2023-02-11T10:56:06;103582.25;;;9.62;85.95
45523;BME280;31254;51.680;5.394;2023-02-11T10:58:52;103581.03;;;9.68;85.80
45523;BME280;31254;51.680;5.394;2023-02-11T11:01:19;103537.69;;;9.27;86.00
45523;BME280;31254;51.680;5.394;2023-02-11T11:03:54;103596.06;;;9.77;86.17
45523;BME280;31254;51.680;5.394;2023-02-11T11:06:31;103589.66;;;9.78;85.60
45523;BME280;31254;51.680;5.394;2023-02-11T11:09:01;103587.47;;;9.84;86.02
45523;BME280;31254;51.680;5.394;2023-02-11T11:11:34;103594.56;;;9.88;85.72
45523;BME280;31254;51.680;5.394;2023-02-11T11:14:23;103583.09;;;9.82;85.80
45523;BME280;31254;51.680;5.394;2023-02-11T11:16:54;103589.91;;;9.91;85.67
45523;BME280;31254;51.680;5.394;2023-02-11T11:19:24;103584.97;;;9.80;85.99
45523;BME280;31254;51.680;5.394;2023-02-11T11:21:55;103604.47;;;9.89;86.24
45523;BME280;31254;51.680;5.394;2023-02-11T11:24:27;103576.31;;;9.72;86.17
45523;BME280;31254;51.680;5.394;2023-02-11T11:26:58;103597.50;;;9.84;86.15
45523;BME280;31254;51.680;5.394;2023-02-11T11:32:53;103608.84;;;9.94;86.01
45523;BME280;31254;51.680;5.394;2023-02-11T11:35:30;103613.97;;;10.00;85.95
45523;BME280;31254;51.680;5.394;2023-02-11T11:38:03;103609.31;;;10.02;85.51
45523;BME280;31254;51.680;5.394;2023-02-11T11:40:33;103617.81;;;9.96;85.68
45523;BME280;31254;51.680;5.394;2023-02-11T11:45:30;103604.25;;;9.94;85.70
45523;BME280;31254;51.680;5.394;2023-02-11T11:48:18;103598.16;;;9.89;85.77
45523;BME280;31254;51.680;5.394;2023-02-11T11:50:51;103605.50;;;10.06;85.62
45523;BME280;31254;51.680;5.394;2023-02-11T11:53:30;103598.72;;;10.13;85.67
45523;BME280;31254;51.680;5.394;2023-02-11T11:56:05;103593.84;;;10.20;85.25
45523;BME280;31254;51.680;5.394;2023-02-11T11:58:34;103590.00;;;10.24;85.15
45523;BME280;31254;51.680;5.394;2023-02-11T12:03:56;103609.72;;;10.29;85.03
45523;BME280;31254;51.680;5.394;2023-02-11T12:15:19;103581.25;;;10.35;84.69
45523;BME280;31254;51.680;5.394;2023-02-11T12:18:15;103596.19;;;10.45;84.65
45523;BME280;31254;51.680;5.394;2023-02-11T12:26:21;103577.06;;;10.63;84.12
45523;BME280;31254;51.680;5.394;2023-02-11T12:34:41;103577.38;;;11.06;83.05
45523;BME280;31254;51.680;5.394;2023-02-11T12:40:22;103563.47;;;11.26;82.42
45523;BME280;31254;51.680;5.394;2023-02-11T12:43:13;103557.66;;;11.32;82.17
45523;BME280;31254;51.680;5.394;2023-02-11T12:45:59;103556.66;;;11.33;82.09
45523;BME280;31254;51.680;5.394;2023-02-11T12:48:49;103533.69;;;11.22;82.29
45523;BME280;31254;51.680;5.394;2023-02-11T12:56:39;103564.16;;;11.30;82.34
45523;BME280;31254;51.680;5.394;2023-02-11T12:59:39;103559.22;;;11.21;82.71
45523;BME280;31254;51.680;5.394;2023-02-11T13:02:17;103564.06;;;11.15;82.82
45523;BME280;31254;51.680;5.394;2023-02-11T13:04:56;103571.56;;;11.12;83.40
45523;BME280;31254;51.680;5.394;2023-02-11T13:07:33;103560.28;;;11.02;83.13
45523;BME280;31254;51.680;5.394;2023-02-11T13:10:20;103556.41;;;10.90;83.55
45523;BME280;31254;51.680;5.394;2023-02-11T13:12:49;103562.38;;;10.81;83.93
45523;BME280;31254;51.680;5.394;2023-02-11T13:15:36;103567.22;;;10.76;83.94
45523;BME280;31254;51.680;5.394;2023-02-11T13:20:50;103571.34;;;10.83;83.93
45523;BME280;31254;51.680;5.394;2023-02-11T13:23:31;103565.22;;;10.95;83.44
45523;BME280;31254;51.680;5.394;2023-02-11T13:26:18;103546.81;;;10.99;83.43
45523;BME280;31254;51.680;5.394;2023-02-11T13:31:34;103552.88;;;11.20;82.76
45523;BME280;31254;51.680;5.394;2023-02-11T13:34:01;103555.09;;;11.29;82.80
45523;BME280;31254;51.680;5.394;2023-02-11T13:36:29;103556.84;;;11.30;83.05
45523;BME280;31254;51.680;5.394;2023-02-11T13:39:00;103552.03;;;11.36;82.60
45523;BME280;31254;51.680;5.394;2023-02-11T13:44:15;103557.09;;;11.42;82.54
45523;BME280;31254;51.680;5.394;2023-02-11T13:49:26;103549.19;;;11.37;82.27
45523;BME280;31254;51.680;5.394;2023-02-11T13:51:57;103539.22;;;11.20;82.79
45523;BME280;31254;51.680;5.394;2023-02-11T13:54:29;103547.41;;;11.20;82.74
45523;BME280;31254;51.680;5.394;2023-02-11T13:57:34;103557.91;;;11.28;82.72
45523;BME280;31254;51.680;5.394;2023-02-11T14:14:20;103556.84;;;11.46;82.25
45523;BME280;31254;51.680;5.394;2023-02-11T14:19:31;103558.59;;;11.47;82.12
45523;BME280;31254;51.680;5.394;2023-02-11T14:40:33;103563.00;;;11.50;82.21
45523;BME280;31254;51.680;5.394;2023-02-11T14:43:20;103550.94;;;11.38;82.38
45523;BME280;31254;51.680;5.394;2023-02-11T14:45:51;103558.00;;;11.42;82.31
45523;BME280;31254;51.680;5.394;2023-02-11T14:48:21;103558.59;;;11.47;82.43
45523;BME280;31254;51.680;5.394;2023-02-11T14:51:09;103552.34;;;11.45;82.36
45523;BME280;31254;51.680;5.394;2023-02-11T14:53:43;103562.56;;;11.42;82.83
45523;BME280;31254;51.680;5.394;2023-02-11T14:56:28;103570.69;;;11.43;82.59
45523;BME280;31254;51.680;5.394;2023-02-11T14:58:57;103574.66;;;11.38;82.68
45523;BME280;31254;51.680;5.394;2023-02-11T15:01:32;103523.00;;;11.01;82.80
45523;BME280;31254;51.680;5.394;2023-02-11T15:04:02;103579.34;;;11.36;82.93
45523;BME280;31254;51.680;5.394;2023-02-11T15:06:36;103578.63;;;11.32;83.27
45523;BME280;31254;51.680;5.394;2023-02-11T15:09:35;103576.19;;;11.27;83.38
45523;BME280;31254;51.680;5.394;2023-02-11T15:12:03;103580.22;;;11.20;83.11
45523;BME280;31254;51.680;5.394;2023-02-11T15:14:34;103586.72;;;11.18;83.25
45523;BME280;31254;51.680;5.394;2023-02-11T15:17:03;103556.78;;;11.00;83.44
45523;BME280;31254;51.680;5.394;2023-02-11T15:19:37;103568.41;;;11.04;83.38
45523;BME280;31254;51.680;5.394;2023-02-11T15:22:16;103581.97;;;11.05;83.67
45523;BME280;31254;51.680;5.394;2023-02-11T15:24:44;103588.47;;;11.03;83.69
45523;BME280;31254;51.680;5.394;2023-02-11T15:27:12;103589.22;;;11.06;83.66
45523;BME280;31254;51.680;5.394;2023-02-11T15:29:46;103594.94;;;11.02;83.89